Time;durP1;ratioP1;P1;durP2;ratioP2;P2;SDS_P1;SDS_P2;PMS_P1;PMS_P2;Temp;Humidity;BMP_temperature;BMP_pressure;BME280_temperature;BME280_humidity;BME280_pressure;Samples;Min_cycle;Max_cycle;Signal;HPM_P1;HPM_P2
2022/08/17 00:01:25;;;;;;;1.63;1.20;;;24.90;59.20;;;;;;5013065;28;20076;-71
2022/08/17 00:03:52;;;;;;;1.50;1.10;;;24.90;59.20;;;;;;5012637;28;20057;-72
2022/08/17 00:06:24;;;;;;;1.83;1.52;;;24.90;59.10;;;;;;4995300;28;20434;-72
2022/08/17 00:08:52;;;;;;;1.30;1.10;;;24.90;59.10;;;;;;5012546;28;20029;-72
2022/08/17 00:11:24;;;;;;;1.40;1.30;;;24.80;59.20;;;;;;5012893;28;20378;-73
2022/08/17 00:13:58;;;;;;;1.55;1.30;;;24.80;59.40;;;;;;5012305;28;20030;-72
2022/08/17 00:16:49;;;;;;;1.50;1.30;;;24.70;59.50;;;;;;5012695;28;20356;-72
2022/08/17 00:19:17;;;;;;;1.33;1.23;;;24.70;59.70;;;;;;5012766;28;20231;-72
2022/08/17 00:21:45;;;;;;;2.17;1.40;;;24.60;59.80;;;;;;4994482;28;20046;-72
2022/08/17 00:24:11;;;;;;;1.80;1.25;;;24.60;60.00;;;;;;5012807;28;20049;-72
2022/08/17 00:26:37;;;;;;;1.98;1.25;;;24.60;60.10;;;;;;5012060;28;20026;-75
2022/08/17 00:29:03;;;;;;;1.20;1.10;;;24.50;60.00;;;;;;5012275;28;20029;-72
2022/08/17 00:31:29;;;;;;;3.10;1.50;;;24.50;60.10;;;;;;5012858;28;20033;-72
2022/08/17 00:33:55;;;;;;;1.52;1.20;;;24.50;60.30;;;;;;5012160;28;20049;-72
2022/08/17 00:36:22;;;;;;;1.35;1.25;;;24.50;60.40;;;;;;5012660;28;20026;-72
2022/08/17 00:38:48;;;;;;;1.40;1.30;;;24.50;60.60;;;;;;5008473;28;20085;-72
2022/08/17 00:41:20;;;;;;;1.52;1.20;;;24.40;60.80;;;;;;5012247;28;20038;-72
2022/08/17 00:43:54;;;;;;;1.42;1.33;;;24.40;61.00;;;;;;5012292;28;20026;-72
2022/08/17 00:46:28;;;;;;;3.90;1.70;;;24.30;61.60;;;;;;5018822;28;20379;-72
2022/08/17 00:48:55;;;;;;;1.40;1.30;;;24.30;61.70;;;;;;5018526;28;20029;-72
2022/08/17 00:51:39;;;;;;;2.55;1.35;;;24.30;62.10;;;;;;5018971;28;20529;-72
2022/08/17 00:54:33;;;;;;;1.13;0.93;;;24.30;62.00;;;;;;5018670;28;20025;-72
2022/08/17 00:57:07;;;;;;;1.27;1.17;;;24.30;61.60;;;;;;5004936;28;20240;-72
2022/08/17 00:59:39;;;;;;;1.73;1.48;;;24.30;61.40;;;;;;5019060;28;20058;-72
2022/08/17 01:02:08;;;;;;;1.98;1.20;;;24.30;61.40;;;;;;5018739;28;20064;-72
2022/08/17 01:04:35;;;;;;;2.10;1.40;;;24.30;61.50;;;;;;5019002;28;20030;-72
2022/08/17 01:07:02;;;;;;;1.67;1.35;;;24.30;61.50;;;;;;5018124;28;20125;-72
2022/08/17 01:09:27;;;;;;;1.70;1.48;;;24.30;61.80;;;;;;5018903;28;20041;-72
2022/08/17 01:11:53;;;;;;;1.98;1.75;;;24.30;61.70;;;;;;5018091;28;20034;-72
2022/08/17 01:14:21;;;;;;;1.33;1.05;;;24.30;61.90;;;;;;5019028;28;20061;-72
2022/08/17 01:16:49;;;;;;;1.55;1.45;;;24.30;61.80;;;;;;5018306;28;20105;-72
2022/08/17 01:19:22;;;;;;;1.35;1.25;;;24.30;62.10;;;;;;5018415;28;20112;-72
2022/08/17 01:22:05;;;;;;;2.03;1.50;;;24.20;62.10;;;;;;5018316;28;20092;-72
2022/08/17 01:24:32;;;;;;;2.58;1.30;;;24.20;62.50;;;;;;5018743;28;20021;-72
2022/08/17 01:26:58;;;;;;;1.45;1.27;;;24.20;62.60;;;;;;5018047;28;20056;-72
2022/08/17 01:29:28;;;;;;;2.38;1.58;;;24.10;62.80;;;;;;5018589;28;20033;-72
2022/08/17 01:31:58;;;;;;;2.15;1.70;;;24.10;62.50;;;;;;5018130;28;20037;-72
2022/08/17 01:34:25;;;;;;;2.35;1.40;;;24.10;62.70;;;;;;5017558;28;20036;-71
2022/08/17 01:36:51;;;;;;;1.55;1.45;;;24.10;63.10;;;;;;5018160;28;20025;-71
2022/08/17 01:39:24;;;;;;;1.85;1.35;;;24.10;63.40;;;;;;5018383;28;20041;-71
2022/08/17 01:41:55;;;;;;;1.90;1.50;;;24.10;63.50;;;;;;5017919;28;20088;-72
2022/08/17 01:44:20;;;;;;;;;;;24.10;63.20;;;;;;5018624;28;20167;-73
2022/08/17 01:46:46;;;;;;;1.85;1.40;;;24.10;63.00;;;;;;5017887;28;20375;-73
2022/08/17 01:49:12;;;;;;;1.60;1.48;;;24.10;63.00;;;;;;5018251;28;20025;-73
2022/08/17 01:51:38;;;;;;;1.70;1.38;;;24.10;63.00;;;;;;5018183;28;20112;-73
2022/08/17 01:54:08;;;;;;;2.90;2.10;;;24.10;63.00;;;;;;5017966;28;20025;-73
2022/08/17 01:56:38;;;;;;;1.60;1.50;;;24.00;63.30;;;;;;5015845;28;20455;-73
2022/08/17 01:59:04;;;;;;;2.42;1.70;;;24.00;63.70;;;;;;5014660;28;20105;-73
2022/08/17 02:01:32;;;;;;;2.00;1.55;;;24.00;64.10;;;;;;5015319;28;20113;-72
2022/08/17 02:03:58;;;;;;;2.15;1.45;;;23.90;64.00;;;;;;5014651;28;20034;-72
2022/08/17 02:06:24;;;;;;;1.50;1.10;;;23.90;64.20;;;;;;5015329;28;20115;-72
2022/08/17 02:08:49;;;;;;;3.67;1.58;;;23.90;64.10;;;;;;5014696;28;20026;-72
2022/08/17 02:11:17;;;;;;;1.63;1.30;;;23.90;64.10;;;;;;5015050;28;20140;-71
2022/08/17 02:13:45;;;;;;;1.80;1.58;;;23.90;64.20;;;;;;5014897;28;20030;-72
2022/08/17 02:16:11;;;;;;;2.67;1.33;;;23.90;64.50;;;;;;5014630;28;20105;-71
2022/08/17 02:18:36;;;;;;;2.28;1.50;;;23.90;64.50;;;;;;5014349;28;20166;-72
2022/08/17 02:21:03;;;;;;;1.42;1.30;;;23.80;64.90;;;;;;5014284;28;20030;-73
2022/08/17 02:23:33;;;;;;;3.80;1.42;;;23.80;65.00;;;;;;5014478;28;20113;-72
2022/08/17 02:25:59;;;;;;;1.52;1.38;;;23.80;65.10;;;;;;5014235;28;20029;-72
2022/08/17 02:28:27;;;;;;;3.90;1.40;;;23.70;65.20;;;;;;5014619;28;20029;-72
2022/08/17 02:30:53;;;;;;;1.40;1.30;;;23.70;65.10;;;;;;5014141;28;20034;-72
2022/08/17 02:33:20;;;;;;;5.00;1.63;;;23.70;64.90;;;;;;5014438;28;20033;-71
2022/08/17 02:35:46;;;;;;;1.83;1.60;;;23.70;64.90;;;;;;5014541;28;20072;-71
2022/08/17 02:38:11;;;;;;;1.42;1.33;;;23.70;64.90;;;;;;5013834;28;20026;-71
2022/08/17 02:40:39;;;;;;;1.40;1.30;;;23.70;65.10;;;;;;5011059;28;20034;-71
2022/08/17 02:43:05;;;;;;;1.42;1.33;;;23.60;65.30;;;;;;5013985;28;20022;-72
2022/08/17 02:45:31;;;;;;;2.50;1.38;;;23.60;65.80;;;;;;5014790;28;20038;-71
2022/08/17 02:47:57;;;;;;;2.03;1.38;;;23.60;66.20;;;;;;5013987;28;20025;-72
2022/08/17 02:50:24;;;;;;;1.40;1.30;;;23.50;66.20;;;;;;5014142;28;20113;-71
2022/08/17 02:52:50;;;;;;;2.00;1.60;;;23.50;66.40;;;;;;5014218;28;20026;-74
2022/08/17 02:55:25;;;;;;;2.58;1.38;;;23.40;66.80;;;;;;5014143;28;20025;-72
2022/08/17 02:57:51;;;;;;;3.83;1.60;;;23.40;67.00;;;;;;5013672;28;20022;-74
2022/08/17 03:00:32;;;;;;;2.88;1.70;;;23.40;67.10;;;;;;5014149;28;20140;-71
2022/08/17 03:02:59;;;;;;;1.70;1.38;;;23.30;67.30;;;;;;5013627;28;20017;-72
2022/08/17 03:05:28;;;;;;;2.13;1.55;;;23.30;67.50;;;;;;5014040;28;20033;-71
2022/08/17 03:07:54;;;;;;;2.38;1.70;;;23.20;67.70;;;;;;5013426;28;20018;-72
2022/08/17 03:10:21;;;;;;;1.73;1.40;;;23.20;67.90;;;;;;5013974;28;20038;-71
2022/08/17 03:12:47;;;;;;;1.70;1.20;;;23.10;68.10;;;;;;5013921;28;20053;-72
2022/08/17 03:15:12;;;;;;;2.20;1.67;;;23.10;68.20;;;;;;5013420;28;20758;-72
2022/08/17 03:17:38;;;;;;;1.38;1.27;;;23.10;68.30;;;;;;5014128;28;20041;-71
2022/08/17 03:20:05;;;;;;;2.50;1.20;;;23.10;68.60;;;;;;5013301;28;20491;-72
2022/08/17 03:22:39;;;;;;;1.83;1.00;;;23.00;69.00;;;;;;5013768;28;20029;-71
2022/08/17 03:25:07;;;;;;;2.38;1.55;;;23.00;69.20;;;;;;5013300;28;20029;-71
2022/08/17 03:27:34;;;;;;;3.15;1.75;;;23.00;69.10;;;;;;5013633;28;20105;-71
2022/08/17 03:30:00;;;;;;;2.47;1.80;;;22.90;69.10;;;;;;5013116;28;20038;-71
2022/08/17 03:32:25;;;;;;;1.65;1.55;;;22.90;69.50;;;;;;5013500;28;20030;-71
2022/08/17 03:34:55;;;;;;;2.13;1.58;;;22.90;69.50;;;;;;5010544;28;20025;-71
2022/08/17 03:37:21;;;;;;;2.13;1.67;;;22.90;69.60;;;;;;5013511;28;20029;-71
2022/08/17 03:39:47;;;;;;;2.80;1.55;;;22.80;70.20;;;;;;5013550;28;20030;-71
2022/08/17 03:42:18;;;;;;;3.88;1.65;;;22.80;70.70;;;;;;5013111;28;20026;-72
2022/08/17 03:44:48;;;;;;;1.67;1.58;;;22.80;70.40;;;;;;5013622;28;20072;-71
2022/08/17 03:58:27;;;;;;;2.42;1.63;;;22.60;71.80;;;;;;5006803;28;20087;-73
2022/08/17 04:00:54;;;;;;;1.85;1.73;;;22.70;71.60;;;;;;5013145;28;20112;-72
2022/08/17 04:03:20;;;;;;;2.47;1.90;;;22.70;71.50;;;;;;5012802;28;20030;-72
2022/08/17 04:05:45;;;;;;;1.60;1.50;;;22.70;71.10;;;;;;5013169;28;20032;-72
2022/08/17 04:08:11;;;;;;;1.98;1.70;;;22.70;71.00;;;;;;5012332;28;20409;-73
2022/08/17 04:10:37;;;;;;;2.67;2.17;;;22.70;70.90;;;;;;5012964;28;20030;-73
2022/08/17 04:13:03;;;;;;;4.38;2.10;;;22.70;70.90;;;;;;5012541;28;20030;-72
2022/08/17 04:15:32;;;;;;;12.30;2.78;;;22.70;71.10;;;;;;5012981;28;20112;-73
2022/08/17 04:17:58;;;;;;;2.00;1.50;;;22.70;71.10;;;;;;4995095;28;20026;-75
2022/08/17 04:20:24;;;;;;;2.60;1.65;;;22.70;70.90;;;;;;5011758;28;20390;-72
2022/08/17 04:23:08;;;;;;;1.85;1.65;;;22.70;71.00;;;;;;4995096;28;20030;-72
2022/08/17 04:25:37;;;;;;;2.17;1.77;;;22.70;71.10;;;;;;5012985;28;20088;-72
2022/08/17 04:28:04;;;;;;;1.80;1.67;;;22.70;71.60;;;;;;5012263;28;20467;-72
2022/08/17 04:30:32;;;;;;;2.10;1.65;;;22.80;71.40;;;;;;5012616;28;20496;-72
2022/08/17 04:32:59;;;;;;;1.73;1.63;;;22.80;72.00;;;;;;5009001;28;20022;-74
2022/08/17 04:35:30;;;;;;;3.35;2.08;;;22.60;72.40;;;;;;5012585;28;20058;-72
2022/08/17 04:37:56;;;;;;;2.40;1.70;;;22.60;72.90;;;;;;5012740;28;20418;-72
2022/08/17 04:43:10;;;;;;;2.38;1.70;;;22.60;72.60;;;;;;5002129;28;20076;-71
2022/08/17 04:45:45;;;;;;;2.30;1.90;;;22.70;72.90;;;;;;5003787;28;20104;-71
2022/08/17 04:48:12;;;;;;;2.10;1.77;;;22.80;72.60;;;;;;4999989;28;20023;-73
2022/08/17 04:50:42;;;;;;;2.42;1.85;;;22.90;72.70;;;;;;5000576;28;20039;-71
2022/08/17 04:53:08;;;;;;;;;;;23.00;73.00;;;;;;4998682;28;20031;-72
2022/08/17 04:55:34;;;;;;;2.72;1.80;;;23.10;73.60;;;;;;5012034;28;19992;-72
2022/08/17 04:58:00;;;;;;;1.92;1.83;;;23.10;73.90;;;;;;5012222;28;20053;-75
2022/08/17 05:00:26;;;;;;;5.95;2.15;;;23.20;73.50;;;;;;5011810;28;20034;-71
2022/08/17 05:02:53;;;;;;;5.28;2.10;;;23.20;72.70;;;;;;5012258;28;20395;-71
2022/08/17 05:05:25;;;;;;;5.38;2.38;;;23.30;72.30;;;;;;5008486;28;20077;-72
2022/08/17 05:07:53;;;;;;;3.45;2.20;;;23.30;72.30;;;;;;5012149;28;20034;-71
2022/08/17 05:10:20;;;;;;;3.35;2.42;;;23.40;72.20;;;;;;5011376;28;20111;-72
2022/08/17 05:12:45;;;;;;;4.60;1.98;;;23.40;72.10;;;;;;5011439;28;20022;-73
2022/08/17 05:15:16;;;;;;;2.25;1.85;;;23.40;72.20;;;;;;4994490;28;20399;-73
2022/08/17 05:17:42;;;;;;;4.22;2.20;;;23.50;72.40;;;;;;4992507;28;20101;-73
2022/08/17 05:20:08;;;;;;;3.50;2.63;;;23.40;72.70;;;;;;4999448;28;20100;-72
2022/08/17 05:22:34;;;;;;;2.95;1.80;;;23.40;73.20;;;;;;5011293;28;20057;-72
2022/08/17 05:25:00;;;;;;;2.78;1.98;;;23.50;72.90;;;;;;5007320;28;20056;-72
2022/08/17 05:27:25;;;;;;;2.53;1.70;;;23.50;72.70;;;;;;4999179;28;20310;-72
2022/08/17 05:29:51;;;;;;;2.88;2.25;;;23.60;72.80;;;;;;5000113;28;20022;-72
2022/08/17 05:32:21;;;;;;;3.25;1.55;;;23.60;72.70;;;;;;5004163;28;20030;-72
2022/08/17 05:34:47;;;;;;;5.40;2.50;;;23.60;72.60;;;;;;5015595;28;20383;-71
2022/08/17 05:37:12;;;;;;;3.28;2.17;;;23.60;72.30;;;;;;5011873;28;20029;-72
2022/08/17 05:39:38;;;;;;;4.70;2.38;;;23.70;72.40;;;;;;5015619;28;20022;-71
2022/08/17 05:42:04;;;;;;;3.80;2.40;;;23.90;72.30;;;;;;5015362;28;20026;-73
2022/08/17 05:44:29;;;;;;;3.85;2.35;;;24.10;70.90;;;;;;5015223;28;20030;-71
2022/08/17 05:46:58;;;;;;;3.85;2.30;;;24.30;70.00;;;;;;5015496;28;20037;-72
2022/08/17 05:49:27;;;;;;;7.85;2.55;;;24.50;69.00;;;;;;5014861;28;20489;-72
2022/08/17 05:52:01;;;;;;;4.00;2.58;;;24.70;68.20;;;;;;5015429;28;20045;-72
2022/08/17 05:55:04;;;;;;;3.22;2.55;;;25.00;66.80;;;;;;5014826;28;20358;-72
2022/08/17 05:57:42;;;;;;;2.80;1.80;;;25.40;64.70;;;;;;5014852;28;20026;-72
2022/08/17 06:00:24;;;;;;;8.18;2.45;;;25.80;64.00;;;;;;5014819;28;20022;-75
2022/08/17 06:02:59;;;;;;;5.47;2.05;;;26.30;61.10;;;;;;5014775;28;20425;-72
2022/08/17 06:05:43;;;;;;;3.10;2.05;;;26.80;59.60;;;;;;5014327;28;20026;-72
2022/08/17 06:08:11;;;;;;;2.75;1.60;;;27.60;57.30;;;;;;5014521;28;20033;-73
2022/08/17 06:11:14;;;;;;;2.83;1.95;;;28.40;54.60;;;;;;5014705;28;20439;-72
2022/08/17 06:14:03;;;;;;;3.05;1.80;;;29.40;52.60;;;;;;4995952;28;20026;-72
2022/08/17 06:16:37;;;;;;;8.82;2.22;;;30.30;49.60;;;;;;4995197;28;20047;-72
2022/08/17 06:19:11;;;;;;;2.67;1.83;;;30.60;48.10;;;;;;4994952;28;20054;-72
2022/08/17 06:21:41;;;;;;;3.53;1.88;;;30.80;47.60;;;;;;4995021;28;20467;-72
2022/08/17 06:24:17;;;;;;;2.90;1.80;;;30.70;47.50;;;;;;5006823;28;20065;-76
2022/08/17 06:26:44;;;;;;;1.70;1.40;;;30.70;48.20;;;;;;5014937;28;20375;-72
2022/08/17 06:29:22;;;;;;;2.25;1.77;;;30.90;47.10;;;;;;5014132;28;20026;-73
2022/08/17 06:31:49;;;;;;;1.63;1.38;;;31.00;46.90;;;;;;5014856;28;20042;-72
2022/08/17 06:34:15;;;;;;;2.00;1.42;;;30.90;47.00;;;;;;5014342;28;20029;-72
2022/08/17 06:36:47;;;;;;;3.50;1.50;;;31.00;47.30;;;;;;5014480;28;20387;-72
2022/08/17 06:39:48;;;;;;;6.28;1.80;;;31.10;47.30;;;;;;5013968;28;20029;-73
2022/08/17 06:42:39;;;;;;;1.70;1.48;;;31.10;46.50;;;;;;5013649;28;20034;-73
2022/08/17 06:45:13;;;;;;;1.88;1.40;;;31.30;46.40;;;;;;5002444;28;20037;-73
2022/08/17 06:47:48;;;;;;;1.83;1.65;;;31.40;45.30;;;;;;5014523;28;20383;-72
2022/08/17 06:50:23;;;;;;;2.22;1.70;;;31.60;46.20;;;;;;5014070;28;20036;-73
2022/08/17 06:53:06;;;;;;;2.00;1.50;;;31.90;45.90;;;;;;5014707;28;20502;-72
2022/08/17 06:55:49;;;;;;;2.97;1.75;;;32.10;45.20;;;;;;5013643;28;20360;-73
2022/08/17 06:58:19;;;;;;;3.15;1.88;;;32.40;44.50;;;;;;5013723;28;20128;-72
2022/08/17 07:00:47;;;;;;;4.45;2.10;;;33.00;43.90;;;;;;5014278;28;20040;-72
2022/08/17 07:03:38;;;;;;;3.58;2.00;;;33.60;44.60;;;;;;5013765;28;20101;-73
2022/08/17 07:06:11;;;;;;;6.05;2.20;;;34.30;44.00;;;;;;5013986;28;20022;-73
2022/08/17 07:08:49;;;;;;;5.10;1.92;;;35.20;44.00;;;;;;5013592;28;20033;-73
2022/08/17 07:11:24;;;;;;;6.50;2.03;;;36.00;42.10;;;;;;5013719;28;20129;-73
2022/08/17 07:13:59;;;;;;;5.65;1.80;;;36.50;41.30;;;;;;5014095;28;20462;-73
2022/08/17 07:16:40;;;;;;;2.85;2.10;;;37.00;40.60;;;;;;5013991;28;20036;-73
2022/08/17 07:19:06;;;;;;;3.45;2.15;;;37.40;39.10;;;;;;5013686;28;20112;-72
2022/08/17 07:21:58;;;;;;;3.70;1.85;;;37.90;38.60;;;;;;4995485;28;20095;-72
2022/08/17 07:24:26;;;;;;;3.58;2.33;;;38.80;38.00;;;;;;5013142;28;20034;-71
2022/08/17 07:27:09;;;;;;;4.75;2.08;;;39.50;36.80;;;;;;5013557;28;20464;-73
2022/08/17 07:29:42;;;;;;;2.55;1.58;;;40.10;36.00;;;;;;5013338;28;20038;-72
2022/08/17 07:32:09;;;;;;;2.33;1.52;;;41.00;35.40;;;;;;5013794;28;20053;-72
2022/08/17 07:35:00;;;;;;;1.90;1.67;;;41.80;34.60;;;;;;5013233;28;20141;-73
2022/08/17 07:37:25;;;;;;;3.50;1.45;;;42.40;32.70;;;;;;5012970;28;20497;-71
2022/08/17 07:39:51;;;;;;;2.95;1.73;;;42.50;32.50;;;;;;5013776;28;20034;-74
2022/08/17 07:42:17;;;;;;;1.65;1.30;;;42.90;31.40;;;;;;5012954;28;20060;-74
2022/08/17 07:48:17;;;;;;;7.30;1.73;;;43.20;30.60;;;;;;5012874;28;20038;-74
2022/08/17 07:50:34;;;;;;;1.48;1.20;;;44.70;29.50;;;;;;4993195;28;20056;-73
2022/08/17 07:53:22;;;;;;;1.45;1.35;;;44.50;29.30;;;;;;4993608;28;20465;-73
2022/08/17 07:55:49;;;;;;;2.13;1.73;;;45.00;29.90;;;;;;4993214;28;20049;-73
2022/08/17 07:58:25;;;;;;;6.10;1.80;;;45.00;29.60;;;;;;4993590;28;20030;-78
2022/08/17 08:01:07;;;;;;;2.83;1.50;;;45.10;28.60;;;;;;4993084;28;20089;-73
2022/08/17 08:03:41;;;;;;;1.73;1.38;;;45.40;28.50;;;;;;4993241;28;20057;-73
2022/08/17 08:06:21;;;;;;;1.88;1.60;;;45.70;28.50;;;;;;4993689;28;20022;-73
2022/08/17 08:08:59;;;;;;;3.65;1.52;;;46.10;28.40;;;;;;4993603;28;20081;-73
2022/08/17 08:11:35;;;;;;;1.50;1.40;;;46.40;27.80;;;;;;4992828;28;20038;-73
2022/08/17 08:14:37;;;;;;;4.82;2.05;;;46.90;28.30;;;;;;4993678;28;20061;-73
2022/08/17 08:17:05;;;;;;;1.70;1.60;;;47.10;27.50;;;;;;4980112;28;20044;-73
2022/08/17 08:19:31;;;;;;;3.50;1.40;;;46.90;27.50;;;;;;4993071;28;20100;-73
2022/08/17 08:22:09;;;;;;;2.00;1.40;;;47.00;27.30;;;;;;4992949;28;20480;-73
2022/08/17 08:24:51;;;;;;;2.67;1.73;;;47.60;27.30;;;;;;4983963;28;20041;-74
2022/08/17 08:27:25;;;;;;;3.58;1.60;;;47.90;27.20;;;;;;5012415;28;20036;-78
2022/08/17 08:29:54;;;;;;;3.28;1.63;;;48.20;27.30;;;;;;5012770;28;20474;-74
2022/08/17 08:32:36;;;;;;;1.35;1.20;;;48.80;27.30;;;;;;5012049;28;20363;-74
2022/08/17 08:35:29;;;;;;;1.65;1.55;;;48.80;26.60;;;;;;5012612;28;20135;-74
2022/08/17 08:38:06;;;;;;;2.75;1.77;;;49.10;26.50;;;;;;5012908;28;20549;-73
2022/08/17 08:40:46;;;;;;;2.75;1.80;;;49.20;26.40;;;;;;5012244;28;20121;-74
2022/08/17 08:43:34;;;;;;;3.65;1.95;;;49.00;26.30;;;;;;5012560;28;20375;-74
2022/08/17 08:46:22;;;;;;;2.08;1.70;;;48.70;26.70;;;;;;5012514;28;20033;-73
2022/08/17 08:49:45;;;;;;;4.28;1.67;;;47.90;26.90;;;;;;5012559;28;20026;-73
2022/08/17 08:52:48;;;;;;;4.25;2.10;;;46.30;27.70;;;;;;4913446;29;20043;-71
2022/08/17 08:55:13;;;;;;;1.95;1.70;;;44.60;28.40;;;;;;4913656;29;20036;-72
2022/08/17 08:57:55;;;;;;;2.90;1.63;;;44.10;29.00;;;;;;4983722;28;20364;-72
2022/08/17 09:00:24;;;;;;;2.60;2.15;;;44.10;29.70;;;;;;4994520;28;20034;-71
2022/08/17 09:03:15;;;;;;;3.97;1.80;;;43.80;29.10;;;;;;5012306;28;20030;-73
2022/08/17 09:05:52;;;;;;;2.05;1.73;;;43.60;30.00;;;;;;5013229;28;20096;-73
2022/08/17 09:08:45;;;;;;;2.85;2.15;;;43.30;29.90;;;;;;5016303;28;20034;-74
2022/08/17 09:11:34;;;;;;;3.42;1.95;;;43.00;30.50;;;;;;5016361;28;20109;-73
2022/08/17 09:14:15;;;;;;;4.65;2.00;;;42.00;30.50;;;;;;5016309;28;20057;-73
2022/08/17 09:17:11;;;;;;;3.85;1.92;;;41.00;30.80;;;;;;5015488;28;20026;-73
2022/08/17 09:19:45;;;;;;;3.00;2.30;;;40.40;32.20;;;;;;5015347;28;20085;-73
2022/08/17 09:22:20;;;;;;;6.97;1.98;;;39.70;33.00;;;;;;5015761;28;20104;-73
2022/08/17 09:25:10;;;;;;;2.70;2.22;;;39.20;32.80;;;;;;5016171;28;20045;-73
2022/08/17 09:27:48;;;;;;;3.17;2.20;;;38.60;33.00;;;;;;5015661;28;20022;-73
2022/08/17 09:30:14;;;;;;;2.30;1.75;;;38.20;33.50;;;;;;5016228;28;20022;-73
2022/08/17 09:32:41;;;;;;;2.72;1.80;;;38.00;33.90;;;;;;5015462;28;20411;-72
2022/08/17 09:35:21;;;;;;;3.30;2.00;;;37.90;33.70;;;;;;5015960;28;20030;-73
2022/08/17 09:38:02;;;;;;;2.72;1.67;;;37.70;34.10;;;;;;5015693;28;20026;-73
2022/08/17 09:40:34;;;;;;;2.92;2.10;;;37.60;34.50;;;;;;5015275;28;20049;-73
2022/08/17 09:43:23;;;;;;;2.70;2.22;;;37.50;34.80;;;;;;5015654;28;20025;-73
2022/08/17 09:45:57;;;;;;;2.13;1.85;;;37.50;34.80;;;;;;5015795;28;20095;-73
2022/08/17 09:48:42;;;;;;;1.90;1.77;;;37.30;34.20;;;;;;5015322;28;20034;-77
2022/08/17 09:51:34;;;;;;;2.50;2.00;;;36.80;34.70;;;;;;5012429;28;20033;-73
2022/08/17 09:54:00;;;;;;;2.67;1.85;;;36.80;35.40;;;;;;5015656;28;20481;-73
2022/08/17 09:56:50;;;;;;;4.43;2.22;;;36.80;34.80;;;;;;5015107;28;20077;-73
2022/08/17 09:59:57;;;;;;;2.92;1.83;;;36.60;35.10;;;;;;5015272;28;20041;-73
2022/08/17 10:02:50;;;;;;;1.80;1.70;;;36.30;35.00;;;;;;4968555;28;20107;-77
2022/08/17 10:05:36;;;;;;;1.88;1.65;;;36.10;35.40;;;;;;5015519;28;20030;-72
2022/08/17 10:08:02;;;;;;;2.92;1.90;;;36.20;35.20;;;;;;5015200;28;20033;-72
2022/08/17 10:10:41;;;;;;;2.25;1.73;;;36.30;36.20;;;;;;5014587;28;20030;-73
2022/08/17 10:13:17;;;;;;;2.10;1.90;;;36.30;35.60;;;;;;5014946;28;20060;-72
2022/08/17 10:15:57;;;;;;;2.92;1.70;;;36.30;35.50;;;;;;5014682;28;20034;-73
2022/08/17 10:18:26;;;;;;;2.55;1.60;;;36.20;35.90;;;;;;5013649;28;20038;-74
2022/08/17 10:26:40;;;;;;;2.42;1.48;;;36.20;34.50;;;;;;4999351;28;20062;-72
2022/08/17 10:29:09;;;;;;;1.90;1.70;;;36.20;35.10;;;;;;4995020;28;20030;-73
2022/08/17 10:31:34;;;;;;;3.42;1.80;;;35.90;35.50;;;;;;4994782;28;20026;-73
2022/08/17 10:34:24;;;;;;;3.65;2.40;;;36.10;35.80;;;;;;4994641;28;20416;-73
2022/08/17 10:37:18;;;;;;;3.95;1.85;;;36.00;35.50;;;;;;4995042;28;20105;-73
2022/08/17 10:39:58;;;;;;;4.43;1.70;;;36.00;35.60;;;;;;4980628;28;20041;-73
2022/08/17 10:42:48;;;;;;;2.22;1.55;;;36.00;35.70;;;;;;4994730;28;20030;-73
2022/08/17 10:45:28;;;;;;;1.98;1.65;;;36.10;35.60;;;;;;4994948;28;20034;-72
2022/08/17 10:48:19;;;;;;;2.78;1.75;;;36.00;35.10;;;;;;4994880;28;20037;-72
2022/08/17 10:51:01;;;;;;;2.55;1.67;;;35.90;34.90;;;;;;4994351;28;20034;-71
2022/08/17 10:53:30;;;;;;;3.38;1.50;;;35.90;35.60;;;;;;4994536;28;20037;-73
2022/08/17 10:56:11;;;;;;;1.30;1.20;;;36.00;35.00;;;;;;4994815;28;20030;-72
2022/08/17 10:58:58;;;;;;;2.80;1.50;;;35.90;34.50;;;;;;4993945;28;20106;-72
2022/08/17 11:01:36;;;;;;;1.73;1.63;;;35.90;34.40;;;;;;4994475;28;20044;-71
2022/08/17 11:04:17;;;;;;;1.92;1.50;;;35.80;34.50;;;;;;4994489;28;20077;-71
2022/08/17 11:07:16;;;;;;;2.30;1.30;;;35.80;34.60;;;;;;4994291;28;20026;-71
2022/08/17 11:10:03;;;;;;;3.65;1.50;;;35.80;34.70;;;;;;4993899;28;20349;-73
2022/08/17 11:12:50;;;;;;;1.85;1.58;;;35.70;34.80;;;;;;4993601;28;20054;-73
2022/08/17 11:15:30;;;;;;;2.45;1.65;;;35.80;34.80;;;;;;4994286;28;20026;-73
2022/08/17 11:17:57;;;;;;;1.50;1.40;;;35.80;34.50;;;;;;4993909;28;20050;-72
2022/08/17 11:20:48;;;;;;;1.88;1.65;;;35.90;34.50;;;;;;4993844;28;20513;-71
2022/08/17 11:23:19;;;;;;;2.03;1.50;;;35.80;33.80;;;;;;4983023;28;20066;-71
2022/08/17 11:25:57;;;;;;;2.25;1.80;;;35.80;34.40;;;;;;4993633;28;20034;-72
2022/08/17 11:28:34;;;;;;;1.75;1.55;;;35.80;34.40;;;;;;4994238;28;20023;-71
2022/08/17 11:31:08;;;;;;;1.73;1.10;;;35.90;34.20;;;;;;4994121;28;20038;-71
2022/08/17 11:33:34;;;;;;;1.75;1.40;;;35.90;34.10;;;;;;4993593;28;20438;-72
2022/08/17 11:36:17;;;;;;;1.35;1.10;;;35.90;33.60;;;;;;4994038;28;20058;-73
2022/08/17 11:39:01;;;;;;;1.23;1.13;;;35.90;33.10;;;;;;4993589;28;20360;-72
2022/08/17 11:41:37;;;;;;;1.83;1.40;;;35.90;33.40;;;;;;4994089;28;20036;-72
2022/08/17 11:44:42;;;;;;;4.88;1.60;;;35.90;32.70;;;;;;5001547;28;20045;-72
2022/08/17 11:54:04;;;;;;;2.45;1.42;;;35.90;32.90;;;;;;5012751;28;20125;-73
2022/08/17 11:56:49;;;;;;;1.70;1.60;;;35.90;33.20;;;;;;5013378;28;20030;-72
2022/08/17 11:59:40;;;;;;;1.55;1.45;;;35.90;32.80;;;;;;5013191;28;20467;-72
2022/08/17 12:02:31;;;;;;;2.55;1.42;;;35.90;33.00;;;;;;5012905;28;20030;-72
2022/08/17 12:05:08;;;;;;;2.25;1.17;;;35.90;32.90;;;;;;5012688;28;20034;-72
2022/08/17 12:07:45;;;;;;;3.75;1.92;;;35.90;32.50;;;;;;5012377;28;20022;-76
2022/08/17 12:10:15;;;;;;;2.63;1.73;;;35.90;32.30;;;;;;5012755;28;20030;-72
2022/08/17 12:12:43;;;;;;;1.50;1.40;;;35.80;32.50;;;;;;5012347;28;20032;-72
2022/08/17 12:15:17;;;;;;;3.13;1.50;;;35.80;32.90;;;;;;5012906;28;20026;-72
2022/08/17 12:17:54;;;;;;;1.95;1.35;;;35.60;32.60;;;;;;5011906;28;20065;-73
2022/08/17 12:20:30;;;;;;;2.17;1.40;;;35.40;32.60;;;;;;5012983;28;20498;-72
2022/08/17 12:23:24;;;;;;;4.53;1.65;;;35.30;32.80;;;;;;5012875;28;20458;-72
2022/08/17 12:25:58;;;;;;;1.52;1.38;;;35.30;33.10;;;;;;5012138;28;20502;-72
2022/08/17 12:28:28;;;;;;;1.55;1.30;;;35.20;33.30;;;;;;5012819;28;20401;-71
2022/08/17 12:30:57;;;;;;;2.40;1.65;;;35.10;33.70;;;;;;5011994;28;20029;-72
2022/08/17 12:33:24;;;;;;;1.80;1.70;;;35.00;33.40;;;;;;5012496;28;20083;-72
2022/08/17 12:36:03;;;;;;;2.72;1.73;;;34.80;33.50;;;;;;4997795;28;20109;-72
2022/08/17 12:38:35;;;;;;;1.60;1.50;;;34.70;33.80;;;;;;4992719;28;20081;-72
2022/08/17 12:44:02;;;;;;;1.85;1.73;;;34.60;34.30;;;;;;4992352;28;20045;-72
2022/08/17 12:46:43;;;;;;;1.63;1.33;;;34.60;34.30;;;;;;4992932;28;20030;-72
2022/08/17 12:49:24;;;;;;;1.33;1.23;;;34.50;33.90;;;;;;4992864;28;20026;-72
2022/08/17 12:52:01;;;;;;;2.50;1.40;;;34.50;34.10;;;;;;4992203;28;20186;-72
2022/08/17 12:55:00;;;;;;;1.95;1.30;;;34.40;34.30;;;;;;4992629;28;20053;-72
2022/08/17 12:57:41;;;;;;;4.40;1.70;;;34.30;33.90;;;;;;4987372;28;20549;-72
2022/08/17 13:00:06;;;;;;;;;;;34.30;33.80;;;;;;4993375;28;20033;-71
2022/08/17 13:02:52;;;;;;;2.25;1.55;;;34.20;34.00;;;;;;4992660;28;19914;-72
2022/08/17 13:05:26;;;;;;;2.80;1.33;;;34.20;33.90;;;;;;4992869;28;20041;-72
2022/08/17 13:07:53;;;;;;;5.05;2.15;;;34.10;34.20;;;;;;4992479;28;20073;-72
2022/08/17 13:10:31;;;;;;;1.52;1.42;;;34.00;34.10;;;;;;4992769;28;20022;-72
2022/08/17 13:13:02;;;;;;;1.90;1.33;;;33.90;34.10;;;;;;4992127;28;20030;-73
2022/08/17 13:15:36;;;;;;;2.92;1.92;;;33.90;34.20;;;;;;4992650;28;20343;-72
2022/08/17 13:18:27;;;;;;;1.88;1.50;;;33.80;33.90;;;;;;4992498;28;20081;-72
2022/08/17 13:20:54;;;;;;;;;;;33.70;34.10;;;;;;4992590;28;20467;-72
2022/08/17 13:23:20;;;;;;;3.90;1.60;;;33.80;34.10;;;;;;4993159;28;20362;-71
2022/08/17 13:25:56;;;;;;;3.95;1.70;;;33.70;34.20;;;;;;4992328;28;20034;-73
2022/08/17 13:28:26;;;;;;;3.42;1.70;;;33.70;34.50;;;;;;4992574;28;20030;-72
2022/08/17 13:31:12;;;;;;;1.85;1.60;;;33.70;34.40;;;;;;4992197;28;20042;-71
2022/08/17 13:33:37;;;;;;;2.90;1.50;;;33.70;34.50;;;;;;4992322;28;20031;-72
2022/08/17 13:36:06;;;;;;;2.53;1.58;;;33.70;34.50;;;;;;4991957;28;20069;-73
2022/08/17 13:38:48;;;;;;;2.17;1.38;;;33.60;34.30;;;;;;4994770;28;20081;-72
2022/08/17 13:41:34;;;;;;;1.67;1.55;;;33.60;34.50;;;;;;4992372;28;20030;-72
2022/08/17 13:44:00;;;;;;;1.55;1.40;;;33.60;34.50;;;;;;4991958;28;20034;-71
2022/08/17 13:46:31;;;;;;;2.85;1.40;;;33.50;34.70;;;;;;4992328;28;20412;-72
2022/08/17 13:49:08;;;;;;;2.90;1.75;;;33.60;34.90;;;;;;4991991;28;20121;-72
2022/08/17 13:51:45;;;;;;;1.75;1.48;;;33.50;34.70;;;;;;4992468;28;20076;-72
2022/08/17 13:54:40;;;;;;;2.33;1.20;;;33.60;35.30;;;;;;4995949;28;20121;-72
2022/08/17 13:57:21;;;;;;;1.73;1.40;;;33.50;34.50;;;;;;4975011;28;20050;-73